Time;durP1;ratioP1;P1;durP2;ratioP2;P2;SDS_P1;SDS_P2;PMS_P1;PMS_P2;Temp;Humidity;BMP_temperature;BMP_pressure;BME280_temperature;BME280_humidity;BME280_pressure;Samples;Min_cycle;Max_cycle;Signal;HPM_P1;HPM_P2
2022/05/15 00:02:22;;;;;;;14.83;8.17;;;12.60;99.90;;;;;;5041075;28;20676;-66
2022/05/15 00:04:51;;;;;;;24.47;9.13;;;12.60;99.90;;;;;;5045796;28;20207;-66
2022/05/15 00:07:20;;;;;;;18.57;9.00;;;12.60;99.90;;;;;;5046837;28;20298;-66
2022/05/15 00:09:49;;;;;;;12.70;7.90;;;12.60;99.90;;;;;;5042086;28;20756;-66
2022/05/15 00:12:20;;;;;;;16.53;8.23;;;12.50;99.90;;;;;;5039974;28;20252;-66
2022/05/15 00:14:49;;;;;;;15.00;8.80;;;12.50;99.90;;;;;;5047785;28;20652;-66
2022/05/15 00:17:18;;;;;;;18.07;8.70;;;12.50;99.90;;;;;;5046293;28;20189;-66
2022/05/15 00:19:46;;;;;;;17.23;9.47;;;12.50;99.90;;;;;;5046135;28;20790;-66
2022/05/15 00:22:15;;;;;;;19.93;9.40;;;12.40;99.90;;;;;;5048448;28;20199;-66
2022/05/15 00:24:45;;;;;;;19.03;9.10;;;12.40;99.90;;;;;;5051462;28;20201;-66
2022/05/15 00:27:13;;;;;;;21.80;10.00;;;12.40;99.90;;;;;;5051628;28;20678;-66
2022/05/15 00:29:44;;;;;;;17.60;10.03;;;12.30;99.90;;;;;;5055135;28;20211;-67
2022/05/15 00:32:12;;;;;;;15.00;9.73;;;12.30;99.90;;;;;;5056840;28;20914;-66
2022/05/15 00:34:40;;;;;;;18.10;9.97;;;12.30;99.90;;;;;;5077348;28;20233;-67
2022/05/15 00:37:09;;;;;;;17.93;9.33;;;12.20;99.90;;;;;;5048363;28;20564;-66
2022/05/15 00:39:37;;;;;;;19.17;9.90;;;12.20;99.90;;;;;;5052552;28;20279;-67
2022/05/15 00:42:11;;;;;;;16.57;10.13;;;12.30;99.90;;;;;;5051245;28;20220;-66
2022/05/15 00:44:39;;;;;;;23.30;10.20;;;12.20;99.90;;;;;;5055316;28;20193;-66
2022/05/15 00:47:10;;;;;;;19.70;9.83;;;12.20;99.90;;;;;;5047373;28;20291;-66
2022/05/15 00:49:39;;;;;;;16.10;9.23;;;12.20;99.90;;;;;;5050414;28;20203;-67
2022/05/15 00:52:12;;;;;;;15.83;9.13;;;12.20;99.90;;;;;;5050700;28;20201;-66
2022/05/15 00:54:45;;;;;;;16.93;9.20;;;12.10;99.90;;;;;;5049030;28;20547;-66
2022/05/15 00:57:19;;;;;;;22.80;10.00;;;12.00;99.90;;;;;;5052179;28;20189;-66
2022/05/15 00:59:53;;;;;;;20.73;9.80;;;12.00;99.90;;;;;;5059346;28;20615;-66
2022/05/15 01:02:23;;;;;;;18.90;9.70;;;12.00;99.90;;;;;;5048967;28;20288;-66
2022/05/15 01:04:53;;;;;;;16.97;9.47;;;12.00;99.90;;;;;;5050446;28;20230;-67
2022/05/15 01:07:21;;;;;;;16.90;9.37;;;11.90;99.90;;;;;;5046011;28;20744;-66
2022/05/15 01:09:50;;;;;;;18.40;9.43;;;11.90;99.90;;;;;;5048434;28;20311;-66
2022/05/15 01:12:20;;;;;;;17.10;9.10;;;11.80;99.90;;;;;;5046987;28;20199;-66
2022/05/15 01:14:49;;;;;;;17.53;9.97;;;11.80;99.90;;;;;;5047009;28;20236;-67
2022/05/15 01:17:18;;;;;;;19.77;9.97;;;11.80;99.90;;;;;;5049094;28;20185;-66
2022/05/15 01:19:46;;;;;;;19.83;10.03;;;11.80;99.90;;;;;;5050652;28;20235;-66
2022/05/15 01:22:16;;;;;;;16.43;9.17;;;11.70;99.90;;;;;;5047318;28;20573;-66
2022/05/15 01:24:44;;;;;;;18.33;9.80;;;11.70;99.90;;;;;;5050721;28;20196;-66
2022/05/15 01:27:14;;;;;;;17.87;10.53;;;11.70;99.90;;;;;;5054828;28;20219;-67
2022/05/15 01:29:44;;;;;;;18.63;10.73;;;11.70;99.90;;;;;;5054136;28;20203;-67
2022/05/15 01:32:14;;;;;;;21.30;11.70;;;11.60;99.90;;;;;;5049723;28;20199;-66
2022/05/15 01:34:43;;;;;;;21.20;11.07;;;11.60;99.90;;;;;;5075844;28;20220;-66
2022/05/15 01:37:12;;;;;;;25.30;10.77;;;11.60;99.90;;;;;;5046338;28;20211;-66
2022/05/15 01:39:42;;;;;;;19.20;10.47;;;11.60;99.90;;;;;;5049364;28;20189;-66
2022/05/15 01:42:10;;;;;;;22.73;10.60;;;11.60;99.90;;;;;;5049626;28;20307;-66
2022/05/15 01:44:39;;;;;;;21.17;10.73;;;11.50;99.90;;;;;;5048409;28;20207;-66
2022/05/15 01:47:08;;;;;;;20.90;10.67;;;11.50;99.90;;;;;;5051115;28;20296;-66
2022/05/15 01:49:37;;;;;;;17.23;10.87;;;11.40;99.90;;;;;;5066243;28;20219;-66
2022/05/15 01:52:06;;;;;;;18.23;10.10;;;11.40;99.90;;;;;;5051089;28;20235;-66
2022/05/15 01:54:34;;;;;;;18.57;10.50;;;11.40;99.90;;;;;;5050697;28;20192;-66
2022/05/15 01:57:05;;;;;;;17.50;10.23;;;11.40;99.90;;;;;;5049573;28;20225;-66
2022/05/15 01:59:33;;;;;;;17.30;10.23;;;11.40;99.90;;;;;;5061151;28;20664;-66
2022/05/15 02:02:01;;;;;;;18.63;9.80;;;11.40;99.90;;;;;;5048505;28;20644;-66
2022/05/15 02:04:30;;;;;;;14.57;9.40;;;11.30;99.90;;;;;;5050242;28;20192;-67
2022/05/15 02:06:58;;;;;;;15.80;9.43;;;11.30;99.90;;;;;;5049445;28;20649;-66
2022/05/15 02:09:27;;;;;;;17.30;9.53;;;11.30;99.90;;;;;;5052765;28;20216;-67
2022/05/15 02:11:55;;;;;;;20.20;10.60;;;11.30;99.90;;;;;;5082584;28;20279;-67
2022/05/15 02:14:25;;;;;;;18.40;10.53;;;11.20;99.90;;;;;;5048784;28;20197;-66
2022/05/15 02:16:53;;;;;;;18.73;11.40;;;11.20;99.90;;;;;;5049242;28;20197;-66
2022/05/15 02:19:21;;;;;;;21.60;10.73;;;11.20;99.90;;;;;;5052015;28;20196;-66
2022/05/15 02:21:50;;;;;;;23.03;11.23;;;11.20;99.90;;;;;;5048574;28;20200;-66
2022/05/15 02:24:18;;;;;;;24.23;11.30;;;11.10;99.90;;;;;;5048876;28;20217;-66
2022/05/15 02:26:47;;;;;;;26.47;11.93;;;11.10;99.90;;;;;;5048936;28;20572;-66
2022/05/15 02:29:17;;;;;;;22.43;11.30;;;11.10;99.90;;;;;;5049658;28;20299;-66
2022/05/15 02:31:47;;;;;;;25.60;12.10;;;11.10;99.90;;;;;;5047317;28;20209;-66
2022/05/15 02:34:15;;;;;;;23.37;11.73;;;11.00;99.90;;;;;;5049661;28;20243;-66
2022/05/15 02:36:44;;;;;;;23.83;12.20;;;11.00;99.90;;;;;;5048221;28;20557;-66
2022/05/15 02:39:12;;;;;;;23.40;11.70;;;11.00;99.90;;;;;;5050038;28;20185;-66
2022/05/15 02:41:43;;;;;;;25.67;11.73;;;11.00;99.90;;;;;;5048515;28;20231;-66
2022/05/15 02:44:11;;;;;;;24.07;12.00;;;11.10;99.90;;;;;;5048376;28;20203;-66
2022/05/15 02:46:39;;;;;;;21.70;11.77;;;11.10;99.90;;;;;;5048014;28;20189;-66
2022/05/15 02:51:56;;;;;;;28.63;11.63;;;11.10;99.90;;;;;;5078939;28;20533;-67
2022/05/15 02:54:24;;;;;;;25.63;12.10;;;11.10;99.90;;;;;;5048674;28;20270;-66
2022/05/15 02:56:54;;;;;;;27.97;12.70;;;11.10;99.90;;;;;;5077251;28;20391;-66
2022/05/15 02:59:22;;;;;;;28.97;12.20;;;11.00;99.90;;;;;;5049555;28;20193;-67
2022/05/15 03:01:53;;;;;;;26.63;12.47;;;10.90;99.90;;;;;;5047109;28;20192;-66
2022/05/15 03:04:22;;;;;;;25.73;11.57;;;11.00;99.90;;;;;;5048499;28;20201;-66
2022/05/15 03:06:51;;;;;;;22.27;12.93;;;10.90;99.90;;;;;;5049156;28;20536;-66
2022/05/15 03:09:22;;;;;;;22.37;11.10;;;10.90;99.90;;;;;;5050187;28;20248;-66
2022/05/15 03:11:50;;;;;;;22.77;11.90;;;10.90;99.90;;;;;;5056542;28;20202;-66
2022/05/15 03:14:18;;;;;;;21.07;11.67;;;10.90;99.90;;;;;;5079300;28;20228;-66
2022/05/15 03:16:47;;;;;;;24.60;12.20;;;10.90;99.90;;;;;;5048788;28;20201;-66
2022/05/15 03:19:15;;;;;;;24.57;12.17;;;10.80;99.90;;;;;;5080897;28;20185;-66
2022/05/15 03:21:45;;;;;;;24.00;11.30;;;10.80;99.90;;;;;;5048960;28;20205;-66
2022/05/15 03:24:14;;;;;;;23.93;12.00;;;10.80;99.90;;;;;;5049683;28;20196;-66
2022/05/15 03:26:44;;;;;;;29.03;12.40;;;10.70;99.90;;;;;;5055076;28;20203;-66
2022/05/15 03:29:17;;;;;;;27.30;12.60;;;10.70;99.90;;;;;;5049902;28;20360;-66
2022/05/15 03:31:46;;;;;;;23.70;11.53;;;10.80;99.90;;;;;;5048133;28;20275;-66
2022/05/15 03:34:16;;;;;;;24.77;12.37;;;10.80;99.90;;;;;;5047620;28;20626;-66
2022/05/15 03:36:51;;;;;;;24.73;12.70;;;10.80;99.90;;;;;;5047483;28;20271;-67
2022/05/15 03:39:21;;;;;;;28.43;13.23;;;10.70;99.90;;;;;;5043434;28;20198;-67
2022/05/15 03:41:51;;;;;;;28.87;13.37;;;10.70;99.90;;;;;;5050932;28;20215;-66
2022/05/15 03:44:19;;;;;;;28.00;13.17;;;10.80;99.90;;;;;;5046492;28;20204;-67
2022/05/15 03:46:48;;;;;;;33.10;13.60;;;10.70;99.90;;;;;;5045564;28;20192;-67
2022/05/15 03:49:16;;;;;;;30.53;13.53;;;10.80;99.90;;;;;;5050663;28;20675;-67
2022/05/15 03:51:46;;;;;;;29.27;14.20;;;10.80;99.90;;;;;;5047541;28;20193;-66
2022/05/15 03:54:15;;;;;;;28.20;13.07;;;10.80;99.90;;;;;;5046783;28;20275;-67
2022/05/15 03:56:52;;;;;;;27.40;13.07;;;10.90;99.90;;;;;;5047637;28;20207;-67
2022/05/15 03:59:23;;;;;;;29.53;13.03;;;10.80;99.90;;;;;;5042175;28;20203;-67
2022/05/15 04:01:53;;;;;;;28.23;12.50;;;10.80;99.90;;;;;;5040065;28;20190;-67
2022/05/15 04:04:59;;;;;;;31.33;13.33;;;10.80;99.90;;;;;;5044709;28;20200;-66
2022/05/15 04:08:06;;;;;;;30.20;13.03;;;10.70;99.90;;;;;;5046504;28;20331;-66
2022/05/15 04:10:35;;;;;;;23.50;12.97;;;10.70;99.90;;;;;;5042520;28;20223;-67
2022/05/15 04:13:43;;;;;;;25.13;13.33;;;10.80;99.90;;;;;;5045374;28;20214;-67
2022/05/15 04:16:51;;;;;;;31.93;13.60;;;10.80;99.90;;;;;;5045827;28;20201;-66
2022/05/15 04:20:03;;;;;;;32.70;13.10;;;10.80;99.90;;;;;;5046939;28;20195;-67
2022/05/15 04:23:13;;;;;;;30.23;14.17;;;10.80;99.90;;;;;;5046001;28;20235;-66
2022/05/15 04:26:21;;;;;;;33.40;13.60;;;10.80;99.90;;;;;;5046857;28;20232;-67
2022/05/15 04:29:29;;;;;;;29.73;13.73;;;10.90;99.90;;;;;;5045016;28;20209;-67
2022/05/15 04:32:38;;;;;;;30.10;14.27;;;10.90;99.90;;;;;;5041480;28;20659;-66
2022/05/15 04:35:46;;;;;;;23.93;13.27;;;10.90;99.90;;;;;;5044496;28;20699;-67
2022/05/15 04:38:56;;;;;;;33.17;13.50;;;11.00;99.90;;;;;;5047530;28;20204;-67
2022/05/15 04:42:06;;;;;;;25.13;12.97;;;11.00;99.90;;;;;;5041831;28;20240;-67
2022/05/15 04:45:16;;;;;;;29.70;12.97;;;11.10;99.90;;;;;;5045155;28;20212;-67
2022/05/15 04:48:24;;;;;;;24.00;12.50;;;11.10;99.90;;;;;;5044158;28;20668;-67
2022/05/15 04:51:33;;;;;;;32.80;13.53;;;11.20;99.90;;;;;;5043699;28;20228;-67
2022/05/15 04:54:43;;;;;;;31.57;13.57;;;11.30;99.90;;;;;;5045563;28;20889;-67
2022/05/15 04:57:51;;;;;;;29.93;13.10;;;11.40;99.90;;;;;;5046001;28;20189;-67
2022/05/15 05:00:59;;;;;;;30.10;13.10;;;11.50;99.90;;;;;;5045217;28;20606;-67
2022/05/15 05:04:08;;;;;;;24.70;12.63;;;11.60;99.90;;;;;;5043250;28;20231;-67
2022/05/15 05:07:16;;;;;;;29.17;13.50;;;11.70;99.90;;;;;;5045293;28;20221;-67
2022/05/15 05:10:26;;;;;;;24.87;12.37;;;11.90;99.90;;;;;;5049135;28;20540;-67
2022/05/15 05:13:34;;;;;;;27.23;12.80;;;12.00;99.90;;;;;;5046818;28;20197;-67
2022/05/15 05:16:43;;;;;;;27.83;13.47;;;12.20;99.90;;;;;;5048875;28;20200;-67
2022/05/15 05:19:47;;;;;;;22.50;12.37;;;12.30;99.90;;;;;;5038541;28;20201;-67
2022/05/15 05:22:35;;;;;;;32.70;12.30;;;12.40;99.90;;;;;;5047313;28;20208;-67
2022/05/15 05:25:23;;;;;;;18.70;11.57;;;12.50;99.90;;;;;;5044115;28;20208;-67
2022/05/15 05:28:16;;;;;;;27.00;12.27;;;12.70;99.90;;;;;;5050872;28;20197;-67
2022/05/15 05:31:04;;;;;;;25.30;12.10;;;12.90;99.90;;;;;;5048485;28;20231;-67
2022/05/15 05:33:53;;;;;;;21.90;11.97;;;13.00;99.90;;;;;;5045543;28;20285;-67
2022/05/15 05:36:41;;;;;;;31.20;12.43;;;13.10;99.90;;;;;;5050240;28;20204;-67
2022/05/15 05:39:30;;;;;;;24.93;11.60;;;13.20;99.90;;;;;;5046839;28;20258;-67
2022/05/15 05:42:18;;;;;;;27.93;11.80;;;13.40;99.90;;;;;;5046250;28;20793;-67
2022/05/15 05:45:09;;;;;;;21.83;12.13;;;13.40;99.90;;;;;;5046877;28;20199;-67
2022/05/15 05:47:58;;;;;;;26.67;12.60;;;13.60;99.90;;;;;;5048955;28;20193;-67
2022/05/15 05:50:46;;;;;;;29.20;11.97;;;13.60;99.90;;;;;;5048665;28;20220;-67
2022/05/15 05:53:34;;;;;;;28.20;12.23;;;13.80;99.90;;;;;;5052077;28;20193;-67
2022/05/15 05:56:24;;;;;;;28.37;11.33;;;14.00;99.90;;;;;;5047839;28;20200;-67
2022/05/15 05:59:12;;;;;;;26.87;12.67;;;14.10;99.90;;;;;;5049635;28;20211;-67
2022/05/15 06:02:02;;;;;;;29.67;11.67;;;14.20;99.90;;;;;;5048195;28;20208;-67
2022/05/15 06:04:50;;;;;;;24.50;11.33;;;14.30;99.90;;;;;;5040709;28;20197;-67
2022/05/15 06:07:41;;;;;;;25.77;11.40;;;14.50;99.90;;;;;;5050756;28;20204;-67
2022/05/15 06:10:29;;;;;;;28.07;11.93;;;14.70;99.90;;;;;;5049573;28;20208;-67
2022/05/15 06:13:18;;;;;;;27.23;11.47;;;14.90;99.90;;;;;;5050233;28;20207;-67
2022/05/15 06:16:07;;;;;;;27.80;11.80;;;15.10;99.90;;;;;;5049067;28;20228;-67
2022/05/15 06:19:00;;;;;;;25.80;11.40;;;15.20;99.90;;;;;;5048011;28;20243;-67
2022/05/15 06:21:48;;;;;;;20.47;11.17;;;15.30;99.90;;;;;;5042563;28;20619;-67
2022/05/15 06:24:36;;;;;;;18.50;10.80;;;15.40;99.90;;;;;;5047128;28;20261;-67
2022/05/15 06:27:24;;;;;;;23.80;11.00;;;15.60;99.90;;;;;;5048477;28;20207;-67
2022/05/15 06:29:57;;;;;;;23.57;10.97;;;15.70;99.90;;;;;;5048804;28;20258;-67
2022/05/15 06:32:26;;;;;;;20.73;10.57;;;15.90;99.90;;;;;;5048592;28;20200;-67
2022/05/15 06:34:56;;;;;;;21.10;10.27;;;16.10;99.90;;;;;;5049283;28;20282;-67
2022/05/15 06:37:24;;;;;;;19.67;10.70;;;16.20;99.90;;;;;;5045674;28;20637;-67
2022/05/15 06:39:52;;;;;;;18.93;10.83;;;16.30;99.90;;;;;;5047221;28;20209;-67
2022/05/15 06:42:21;;;;;;;20.63;10.40;;;16.40;99.90;;;;;;5044425;28;20281;-67
2022/05/15 06:44:50;;;;;;;26.27;10.70;;;16.50;99.90;;;;;;5048341;28;20642;-67
2022/05/15 06:47:19;;;;;;;24.87;10.70;;;16.70;99.90;;;;;;5050629;28;20194;-67
2022/05/15 06:49:48;;;;;;;19.17;10.00;;;16.90;99.90;;;;;;5048159;28;20652;-66
2022/05/15 06:52:18;;;;;;;17.57;10.33;;;17.20;99.90;;;;;;5050122;28;20235;-67
2022/05/15 06:54:46;;;;;;;21.40;9.33;;;17.40;99.90;;;;;;5054489;28;20533;-67
2022/05/15 06:57:30;;;;;;;15.27;9.00;;;17.60;99.90;;;;;;5048956;28;20216;-67
2022/05/15 07:00:01;;;;;;;18.93;9.80;;;17.80;99.90;;;;;;5049768;28;20209;-67
2022/05/15 07:02:30;;;;;;;19.33;8.90;;;18.10;99.90;;;;;;5050343;28;20211;-67
2022/05/15 07:04:58;;;;;;;14.33;8.70;;;18.30;99.90;;;;;;5048871;28;20216;-67
2022/05/15 07:07:29;;;;;;;18.37;8.97;;;18.40;99.90;;;;;;5046875;28;20243;-67
2022/05/15 07:09:58;;;;;;;16.60;9.17;;;18.70;99.90;;;;;;5046165;28;20263;-67
2022/05/15 07:12:26;;;;;;;18.37;8.70;;;18.90;99.90;;;;;;5048024;28;20247;-67
2022/05/15 07:14:55;;;;;;;18.63;8.10;;;19.00;99.90;;;;;;5050120;28;20699;-67
2022/05/15 07:17:23;;;;;;;20.27;8.03;;;19.20;99.90;;;;;;5046954;28;20216;-67
2022/05/15 07:19:51;;;;;;;16.83;8.50;;;19.30;99.90;;;;;;5048492;28;20288;-67
2022/05/15 07:22:20;;;;;;;14.83;7.97;;;19.50;99.90;;;;;;5047082;28;20204;-67
2022/05/15 07:24:49;;;;;;;15.90;8.27;;;19.80;99.90;;;;;;5047973;28;20212;-67
2022/05/15 07:27:18;;;;;;;17.77;7.87;;;20.10;99.90;;;;;;5046524;28;20250;-67
2022/05/15 07:29:46;;;;;;;15.53;8.03;;;20.30;99.90;;;;;;5047894;28;20663;-61
2022/05/15 07:32:14;;;;;;;13.27;7.20;;;20.40;99.90;;;;;;5043777;28;20215;-62
2022/05/15 07:34:45;;;;;;;13.37;6.87;;;20.50;99.90;;;;;;5048892;28;20232;-61
2022/05/15 07:37:13;;;;;;;14.17;7.43;;;20.60;99.90;;;;;;5043461;28;20565;-62
2022/05/15 07:39:42;;;;;;;15.03;6.70;;;20.80;99.90;;;;;;5046195;28;20278;-61
2022/05/15 07:42:12;;;;;;;16.00;7.07;;;21.10;99.90;;;;;;5049759;28;20779;-62
2022/05/15 07:44:40;;;;;;;14.03;7.30;;;21.10;99.90;;;;;;5045874;28;20774;-62
2022/05/15 07:47:09;;;;;;;14.37;7.20;;;21.20;99.90;;;;;;5046020;28;20530;-62
2022/05/15 07:49:44;;;;;;;17.50;7.30;;;21.40;99.90;;;;;;5050179;28;20291;-62
2022/05/15 07:52:12;;;;;;;15.20;6.47;;;21.70;99.90;;;;;;5049119;28;20689;-62
2022/05/15 07:54:41;;;;;;;11.03;6.30;;;21.90;99.90;;;;;;5047281;28;20368;-62
2022/05/15 07:57:11;;;;;;;14.87;6.77;;;22.00;99.90;;;;;;5050952;28;20217;-62
2022/05/15 07:59:39;;;;;;;16.10;6.53;;;22.00;99.90;;;;;;5045883;28;20693;-61
2022/05/15 08:02:08;;;;;;;29.10;6.60;;;22.10;99.90;;;;;;5050462;28;20222;-61
2022/05/15 08:08:00;;;;;;;14.13;6.00;;;22.30;99.90;;;;;;5049237;28;20217;-62
2022/05/15 08:10:22;;;;;;;14.07;6.37;;;22.70;99.90;;;;;;4990445;28;20246;-62
2022/05/15 08:12:52;;;;;;;12.67;6.30;;;22.90;99.90;;;;;;5034024;28;20764;-62
2022/05/15 08:15:22;;;;;;;15.80;5.97;;;23.20;99.90;;;;;;5047082;28;20998;-62
2022/05/15 08:17:51;;;;;;;9.80;6.20;;;23.40;99.90;;;;;;5049500;28;20628;-62
2022/05/15 08:25:51;;;;;;;10.10;5.67;;;23.90;99.90;;;;;;5050221;28;20210;-62
2022/05/15 08:28:21;;;;;;;6.47;5.45;;;24.20;99.90;;;;;;5049453;28;20599;-62
2022/05/15 08:30:49;;;;;;;9.85;5.50;;;24.30;99.90;;;;;;5048450;28;20193;-62
2022/05/15 08:33:20;;;;;;;9.40;4.90;;;24.50;99.90;;;;;;5050068;28;20248;-62
2022/05/15 08:35:49;;;;;;;21.88;5.07;;;24.60;99.90;;;;;;5044612;28;20215;-62
2022/05/15 08:38:18;;;;;;;9.13;4.65;;;24.80;99.90;;;;;;5048717;28;20201;-61
2022/05/15 08:40:50;;;;;;;10.43;5.00;;;25.00;99.90;;;;;;5047779;28;20209;-62
2022/05/15 08:43:28;;;;;;;10.07;5.05;;;25.10;99.90;;;;;;5050428;28;20209;-61
2022/05/15 08:46:03;;;;;;;12.75;4.40;;;25.10;99.90;;;;;;5048759;28;20201;-61
2022/05/15 08:48:36;;;;;;;10.77;4.82;;;25.60;99.90;;;;;;5053315;28;20206;-62
2022/05/15 08:51:08;;;;;;;10.93;4.63;;;25.80;99.90;;;;;;5052516;28;20236;-61
2022/05/15 08:53:38;;;;;;;10.75;4.82;;;25.60;99.90;;;;;;5058163;28;20209;-61
2022/05/15 08:56:11;;;;;;;8.65;3.95;;;25.80;99.90;;;;;;5052179;28;20208;-61
2022/05/15 08:58:47;;;;;;;9.85;4.32;;;26.20;99.90;;;;;;5051225;28;20214;-62
2022/05/15 09:01:22;;;;;;;9.38;3.83;;;26.60;99.90;;;;;;5051234;28;20216;-61
2022/05/15 09:03:54;;;;;;;8.50;4.70;;;27.00;99.90;;;;;;5048479;28;20246;-61
2022/05/15 09:06:35;;;;;;;8.00;3.95;;;27.60;99.90;;;;;;5046808;28;20684;-61
2022/05/15 09:09:16;;;;;;;6.72;4.07;;;27.40;99.90;;;;;;5051850;28;20214;-61
2022/05/15 09:11:56;;;;;;;8.00;3.80;;;27.70;99.90;;;;;;5048006;28;20260;-61
2022/05/15 09:14:40;;;;;;;7.72;3.72;;;27.80;99.90;;;;;;5052521;28;20644;-62
2022/05/15 09:17:30;;;;;;;7.05;3.10;;;27.60;99.90;;;;;;5051177;28;20259;-62
2022/05/15 09:20:02;;;;;;;8.52;3.80;;;28.10;99.90;;;;;;5050042;28;20614;-62
2022/05/15 09:22:35;;;;;;;5.03;3.33;;;28.20;99.90;;;;;;5054571;28;20637;-61
2022/05/15 09:25:08;;;;;;;4.80;3.10;;;28.30;99.90;;;;;;5052087;28;20208;-62
2022/05/15 09:27:37;;;;;;;5.55;3.15;;;28.60;99.90;;;;;;5047013;28;20263;-61
2022/05/15 09:30:11;;;;;;;8.48;3.05;;;28.20;98.20;;;;;;5046656;28;20208;-62
2022/05/15 09:32:42;;;;;;;7.00;2.97;;;28.00;99.10;;;;;;5049331;28;20346;-61
2022/05/15 09:35:25;;;;;;;8.93;3.55;;;28.10;99.00;;;;;;5047948;28;20209;-61
2022/05/15 09:43:30;;;;;;;6.90;3.20;;;28.00;99.90;;;;;;5047981;28;20207;-62
2022/05/15 09:43:33;;;;;;;4.65;2.92;;;28.40;99.20;;;;;;5050792;28;20278;-62
2022/05/15 09:46:12;;;;;;;6.00;3.08;;;29.20;97.90;;;;;;5047088;28;20209;-62
2022/05/15 09:48:51;;;;;;;14.02;3.17;;;29.20;98.70;;;;;;5048141;28;20331;-62
2022/05/15 09:51:34;;;;;;;4.18;2.85;;;29.50;97.40;;;;;;5044660;28;20217;-62
2022/05/15 09:54:02;;;;;;;9.45;3.00;;;29.90;97.50;;;;;;5048161;28;20232;-62
2022/05/15 09:56:33;;;;;;;8.27;3.13;;;30.40;98.00;;;;;;5046766;28;20728;-62
2022/05/15 09:59:09;;;;;;;5.90;2.95;;;30.80;96.00;;;;;;5056056;28;20211;-62
2022/05/15 10:01:56;;;;;;;7.78;3.00;;;30.60;96.40;;;;;;5046377;28;20292;-62
2022/05/15 10:04:27;;;;;;;4.72;2.67;;;30.30;95.20;;;;;;5035362;28;20320;-62
2022/05/15 10:06:59;;;;;;;5.40;2.50;;;30.20;94.30;;;;;;5039578;28;20211;-62
2022/05/15 10:09:30;;;;;;;5.57;2.50;;;29.90;95.10;;;;;;5049032;28;20227;-62
2022/05/15 10:12:05;;;;;;;5.95;2.33;;;30.10;94.60;;;;;;5045525;28;20290;-62
2022/05/15 10:14:40;;;;;;;5.65;2.95;;;30.40;96.00;;;;;;5050134;28;20291;-62
2022/05/15 10:17:13;;;;;;;4.50;2.60;;;30.70;93.80;;;;;;5041378;28;20296;-61
2022/05/15 10:19:47;;;;;;;3.47;2.50;;;30.40;93.50;;;;;;5048143;28;20210;-62
2022/05/15 10:22:27;;;;;;;3.65;2.65;;;30.10;93.50;;;;;;5049650;28;20194;-62
2022/05/15 10:25:19;;;;;;;5.40;2.40;;;30.40;95.60;;;;;;5050630;28;20751;-62
2022/05/15 10:27:54;;;;;;;10.05;2.60;;;30.70;92.70;;;;;;5039846;28;20221;-61
2022/05/15 10:30:31;;;;;;;9.35;2.67;;;30.20;93.30;;;;;;5049018;28;20945;-62
2022/05/15 10:33:04;;;;;;;5.07;2.65;;;30.30;92.10;;;;;;5048129;28;20243;-62
2022/05/15 10:35:41;;;;;;;6.03;2.90;;;30.40;93.10;;;;;;5050973;28;20215;-62
2022/05/15 10:38:20;;;;;;;3.80;2.30;;;30.40;92.50;;;;;;5046612;28;20738;-61
2022/05/15 10:40:55;;;;;;;5.40;3.03;;;30.50;92.00;;;;;;5044110;28;20211;-62
2022/05/15 10:43:40;;;;;;;8.43;3.20;;;30.40;93.10;;;;;;5043667;28;20216;-62
2022/05/15 10:46:15;;;;;;;5.20;2.70;;;30.60;94.20;;;;;;5037963;28;20668;-62
2022/05/15 10:48:54;;;;;;;10.52;3.22;;;30.90;92.70;;;;;;5042738;28;20283;-62
2022/05/15 10:51:24;;;;;;;4.72;2.75;;;31.00;92.50;;;;;;5045960;28;20708;-62
2022/05/15 10:58:02;;;;;;;5.45;2.42;;;30.60;93.00;;;;;;5040788;28;20211;-62
2022/05/15 11:01:21;;;;;;;4.07;2.67;;;30.20;92.50;;;;;;5040079;28;20266;-62
2022/05/15 11:04:42;;;;;;;5.40;2.45;;;29.80;92.30;;;;;;5047150;28;20211;-62
2022/05/15 11:07:59;;;;;;;7.13;2.65;;;29.00;92.70;;;;;;5049092;28;20195;-62
2022/05/15 11:11:16;;;;;;;4.53;2.45;;;28.50;93.20;;;;;;5048103;28;20202;-62
2022/05/15 11:14:31;;;;;;;3.28;2.60;;;28.60;91.80;;;;;;5049994;28;20235;-61
2022/05/15 11:17:19;;;;;;;4.80;2.60;;;28.90;92.00;;;;;;5038519;28;20200;-62
2022/05/15 11:19:52;;;;;;;5.28;2.17;;;29.00;92.60;;;;;;5039624;28;20675;-62
2022/05/15 11:23:07;;;;;;;8.25;2.42;;;29.00;92.40;;;;;;5048666;28;20201;-62
2022/05/15 11:26:20;;;;;;;5.45;2.22;;;29.10;91.70;;;;;;5049887;28;20201;-62
2022/05/15 11:29:33;;;;;;;2.97;2.00;;;29.20;91.80;;;;;;5043328;28;20257;-62
2022/05/15 11:32:29;;;;;;;5.68;2.40;;;29.30;93.10;;;;;;5022680;28;20196;-60
2022/05/15 11:35:27;;;;;;;6.82;2.42;;;29.20;91.90;;;;;;5041081;28;20220;-62
2022/05/15 11:38:19;;;;;;;4.40;2.33;;;29.20;91.80;;;;;;5024531;28;20227;-62
2022/05/15 11:40:50;;;;;;;4.55;2.10;;;29.10;92.20;;;;;;5052953;28;20579;-61
2022/05/15 11:43:57;;;;;;;3.50;2.20;;;28.90;91.90;;;;;;5042962;28;20209;-62
2022/05/15 11:46:57;;;;;;;4.10;2.47;;;28.50;92.10;;;;;;5046714;28;20193;-61
2022/05/15 11:49:32;;;;;;;5.13;2.35;;;28.70;91.00;;;;;;5044459;28;20312;-60
2022/05/15 11:52:30;;;;;;;3.47;2.20;;;28.80;92.00;;;;;;5045495;28;20282;-62
2022/05/15 11:54:59;;;;;;;3.23;1.97;;;28.50;92.20;;;;;;5047933;28;20196;-62
2022/05/15 11:57:38;;;;;;;5.03;2.03;;;28.60;91.00;;;;;;5051305;28;20220;-61
2022/05/15 12:00:12;;;;;;;2.00;1.90;;;28.80;91.80;;;;;;5047709;28;20253;-61
2022/05/15 12:02:47;;;;;;;4.03;2.33;;;28.80;91.00;;;;;;5047317;28;20270;-61
2022/05/15 12:05:25;;;;;;;3.20;2.20;;;28.20;90.40;;;;;;5041702;28;20316;-61
2022/05/15 12:07:57;;;;;;;3.73;1.97;;;28.00;92.20;;;;;;5047720;28;20232;-61
2022/05/15 12:10:55;;;;;;;4.80;2.30;;;27.90;91.80;;;;;;5049201;28;20203;-63
2022/05/15 12:13:37;;;;;;;5.57;2.27;;;28.00;91.80;;;;;;5040710;28;20298;-61
2022/05/15 12:16:21;;;;;;;3.97;2.00;;;27.50;90.80;;;;;;5049490;28;20196;-60
2022/05/15 12:19:00;;;;;;;3.60;2.07;;;27.70;92.10;;;;;;5040728;28;20290;-61
2022/05/15 12:21:39;;;;;;;2.07;1.97;;;27.70;92.70;;;;;;5047771;28;20195;-62
2022/05/15 12:24:29;;;;;;;2.70;1.97;;;27.70;91.80;;;;;;5046485;28;20267;-62
2022/05/15 12:27:11;;;;;;;2.07;1.83;;;27.80;91.60;;;;;;5039908;28;20203;-61
2022/05/15 12:29:48;;;;;;;3.00;2.00;;;28.20;93.30;;;;;;5049260;28;20216;-61
2022/05/15 12:32:23;;;;;;;2.47;2.17;;;28.30;91.70;;;;;;5042597;28;20739;-60
2022/05/15 12:34:52;;;;;;;2.47;2.20;;;28.10;91.70;;;;;;5074759;28;20251;-60
2022/05/15 12:37:23;;;;;;;5.47;2.43;;;27.80;91.30;;;;;;5046051;28;20623;-60
2022/05/15 12:40:00;;;;;;;4.07;2.40;;;27.60;92.30;;;;;;5050561;28;20242;-61
2022/05/15 12:42:39;;;;;;;4.03;2.40;;;27.20;92.40;;;;;;5043380;28;20220;-62
2022/05/15 12:45:11;;;;;;;4.63;2.63;;;27.40;93.40;;;;;;5047369;28;20196;-61
2022/05/15 12:47:41;;;;;;;3.57;2.83;;;27.30;92.80;;;;;;5041094;28;20196;-61
2022/05/15 12:50:16;;;;;;;7.70;2.60;;;27.50;94.40;;;;;;5045676;28;20208;-61
2022/05/15 12:52:54;;;;;;;4.50;2.50;;;27.60;93.40;;;;;;5048646;28;20197;-61
2022/05/15 12:55:26;;;;;;;7.27;2.93;;;27.40;93.40;;;;;;5052064;28;20219;-61
2022/05/15 12:57:58;;;;;;;4.97;2.87;;;27.20;93.40;;;;;;5046218;28;20725;-61
2022/05/15 13:00:31;;;;;;;6.00;2.90;;;27.00;93.70;;;;;;5049928;28;20211;-61
2022/05/15 13:03:02;;;;;;;6.97;2.60;;;26.90;94.20;;;;;;5043645;28;20203;-61
2022/05/15 13:05:32;;;;;;;7.60;3.07;;;27.10;94.70;;;;;;5044004;28;20196;-61
2022/05/15 13:08:03;;;;;;;5.80;2.60;;;27.40;96.00;;;;;;5045379;28;20193;-61
2022/05/15 13:10:36;;;;;;;3.20;2.80;;;27.40;94.90;;;;;;5048276;28;20244;-61
2022/05/15 13:13:14;;;;;;;4.73;2.77;;;27.70;94.90;;;;;;5048389;28;20529;-61
2022/05/15 13:15:49;;;;;;;4.87;2.83;;;27.80;95.50;;;;;;5047262;28;20659;-61
2022/05/15 13:18:18;;;;;;;6.30;2.50;;;28.00;94.60;;;;;;5040479;28;20203;-61
2022/05/15 13:20:50;;;;;;;4.07;2.63;;;28.10;94.70;;;;;;5048260;28;20201;-62
2022/05/15 13:23:18;;;;;;;7.47;2.60;;;28.30;93.50;;;;;;5042929;28;20204;-61
2022/05/15 13:25:51;;;;;;;4.20;2.97;;;28.40;94.90;;;;;;5049778;28;20211;-61
2022/05/15 13:28:20;;;;;;;6.97;2.57;;;28.40;94.20;;;;;;5048169;28;20193;-61
2022/05/15 13:30:49;;;;;;;6.60;2.70;;;28.60;93.90;;;;;;5049058;28;20563;-61
2022/05/15 13:33:22;;;;;;;5.27;3.10;;;28.60;94.30;;;;;;5076314;28;20225;-61
2022/05/15 13:35:52;;;;;;;5.00;2.63;;;28.70;93.80;;;;;;5048418;28;20204;-61
2022/05/15 13:38:25;;;;;;;3.97;2.70;;;28.80;94.80;;;;;;5046989;28;20197;-61
2022/05/15 13:44:04;;;;;;;3.10;2.83;;;28.70;92.50;;;;;;5017816;28;20722;-61
2022/05/15 13:46:36;;;;;;;5.03;2.50;;;28.60;92.50;;;;;;5044480;28;20254;-62
2022/05/15 13:49:06;;;;;;;4.10;2.30;;;28.60;93.40;;;;;;5041136;28;20197;-61
2022/05/15 13:51:39;;;;;;;2.17;2.07;;;28.70;93.70;;;;;;5050537;28;20224;-62